Time;durP1;ratioP1;P1;durP2;ratioP2;P2;SDS_P1;SDS_P2;PMS_P1;PMS_P2;Temp;Humidity;BMP_temperature;BMP_pressure;BME280_temperature;BME280_humidity;BME280_pressure;Samples;Min_cycle;Max_cycle;Signal;HPM_P1;HPM_P2
2022/10/11 00:00:52;;;;;;;;;;;;;;;;;;8412990;28;28544;-77
2022/10/11 00:04:52;;;;;;;;;;;;;;;;;;8425819;27;28666;-76
2022/10/11 00:08:53;;;;;;;;;;;;;;;;;;8410985;28;27197;-76
2022/10/11 00:12:53;;;;;;;;;;;;;;;;;;8404690;28;28207;-75
2022/10/11 00:16:53;;;;;;;;;;;;;;;;;;8414338;28;27614;-76
2022/10/11 00:20:53;;;;;;;;;;;;;;;;;;8410386;28;27171;-75
2022/10/11 00:24:53;;;;;;;;;;;;;;;;;;8409147;28;27247;-75
2022/10/11 00:28:53;;;;;;;;;;;;;;;;;;8408499;27;27603;-75
2022/10/11 00:32:54;;;;;;;;;;;;;;;;;;8414797;28;27279;-75
2022/10/11 00:36:54;;;;;;;;;;;;;;;;;;8409171;28;27229;-74
2022/10/11 00:40:54;;;;;;;;;;;;;;;;;;8413999;27;27805;-74
2022/10/11 00:44:54;;;;;;;;;;;;;;;;;;8412580;27;28518;-76
2022/10/11 00:48:54;;;;;;;;;;;;;;;;;;8401732;28;27695;-75
2022/10/11 00:52:54;;;;;;;;;;;;;;;;;;8413170;28;27402;-74
2022/10/11 00:56:55;;;;;;;;;;;;;;;;;;8407655;28;29462;-76
2022/10/11 01:00:55;;;;;;;;;;;;;;;;;;8410302;28;27428;-77
2022/10/11 01:04:55;;;;;;;;;;;;;;;;;;8414274;27;28237;-76
2022/10/11 01:08:55;;;;;;;;;;;;;;;;;;8411635;28;27198;-76
2022/10/11 01:12:55;;;;;;;;;;;;;;;;;;8412316;28;28653;-74
2022/10/11 01:16:55;;;;;;;;;;;;;;;;;;8408874;27;27225;-75
2022/10/11 01:20:55;;;;;;;;;;;;;;;;;;8409071;28;28314;-76
2022/10/11 01:24:56;;;;;;;;;;;;;;;;;;8405910;28;28146;-75
2022/10/11 01:28:56;;;;;;;;;;;;;;;;;;8408062;28;28161;-77
2022/10/11 01:32:56;;;;;;;;;;;;;;;;;;8413823;28;27506;-76
2022/10/11 01:36:56;;;;;;;;;;;;;;;;;;8412440;28;27571;-75
2022/10/11 01:40:56;;;;;;;;;;;;;;;;;;8412862;28;27523;-75
2022/10/11 01:44:56;;;;;;;;;;;;;;;;;;8421858;27;28131;-76
2022/10/11 01:48:56;;;;;;;;;;;;;;;;;;8430475;28;28248;-76
2022/10/11 01:52:57;;;;;;;;;;;;;;;;;;8434134;28;27568;-74
2022/10/11 01:56:57;;;;;;;;;;;;;;;;;;8439852;28;27439;-76
2022/10/11 02:00:57;;;;;;;;;;;;;;;;;;8434303;27;27302;-76
2022/10/11 02:04:57;;;;;;;;;;;;;;;;;;8431264;28;27479;-76
2022/10/11 02:08:57;;;;;;;;;;;;;;;;;;8441509;28;27178;-76
2022/10/11 02:12:58;;;;;;;;;;;;;;;;;;8448107;28;28458;-76
2022/10/11 02:17:00;;;;;;;;;;;;;;;;;;8417293;27;27179;-76
2022/10/11 02:21:00;;;;;;;;;;;;;;;;;;8404407;28;27431;-76
2022/10/11 02:25:00;;;;;;;;;;;;;;;;;;8409461;28;28386;-77
2022/10/11 02:29:00;;;;;;;;;;;;;;;;;;8412041;28;27326;-76
2022/10/11 02:33:01;;;;;;;;;;;;;;;;;;8403558;28;29248;-75
2022/10/11 02:37:01;;;;;;;;;;;;;;;;;;8412894;27;27505;-74
2022/10/11 02:41:01;;;;;;;;;;;;;;;;;;8402233;28;28172;-76
2022/10/11 02:45:01;;;;;;;;;;;;;;;;;;8409945;27;28520;-75
2022/10/11 02:49:01;;;;;;;;;;;;;;;;;;8416888;27;27483;-75
2022/10/11 02:53:03;;;;;;;;;;;;;;;;;;8418417;28;27574;-75
2022/10/11 02:57:03;;;;;;;;;;;;;;;;;;8414375;27;27960;-76
2022/10/11 03:01:03;;;;;;;;;;;;;;;;;;8401200;27;28311;-75
2022/10/11 03:05:03;;;;;;;;;;;;;;;;;;8409749;27;27715;-76
2022/10/11 03:09:04;;;;;;;;;;;;;;;;;;8412627;27;27372;-76
2022/10/11 03:13:04;;;;;;;;;;;;;;;;;;8412126;28;27844;-78
2022/10/11 03:17:04;;;;;;;;;;;;;;;;;;8405808;28;29465;-77
2022/10/11 03:21:04;;;;;;;;;;;;;;;;;;8413579;27;27310;-76
2022/10/11 03:25:04;;;;;;;;;;;;;;;;;;8410241;27;28557;-76
2022/10/11 03:29:04;;;;;;;;;;;;;;;;;;8412813;28;28746;-76
2022/10/11 03:33:05;;;;;;;;;;;;;;;;;;8403182;28;28490;-75
2022/10/11 03:37:05;;;;;;;;;;;;;;;;;;8409917;28;28157;-76
2022/10/11 03:41:05;;;;;;;;;;;;;;;;;;8424193;27;28411;-76
2022/10/11 03:45:07;;;;;;;;;;;;;;;;;;8398914;28;29172;-76
2022/10/11 03:49:07;;;;;;;;;;;;;;;;;;8413245;28;27295;-77
2022/10/11 03:53:07;;;;;;;;;;;;;;;;;;8408351;27;27704;-76
2022/10/11 03:57:07;;;;;;;;;;;;;;;;;;8411432;28;28615;-77
2022/10/11 04:01:07;;;;;;;;;;;;;;;;;;8410651;27;28491;-76
2022/10/11 04:05:08;;;;;;;;;;;;;;;;;;8406503;28;27641;-75
2022/10/11 04:09:08;;;;;;;;;;;;;;;;;;8407852;28;27483;-77
2022/10/11 04:13:08;;;;;;;;;;;;;;;;;;8408377;28;28059;-75
2022/10/11 04:17:08;;;;;;;;;;;;;;;;;;8410401;28;27520;-76
2022/10/11 04:21:08;;;;;;;;;;;;;;;;;;8416471;28;28124;-76
2022/10/11 04:25:09;;;;;;;;;;;;;;;;;;8398518;28;28269;-77
2022/10/11 04:29:09;;;;;;;;;;;;;;;;;;8403679;28;27167;-76
2022/10/11 04:33:10;;;;;;;;;;;;;;;;;;8390244;28;28733;-77
2022/10/11 04:37:10;;;;;;;;;;;;;;;;;;8402422;28;28714;-75
2022/10/11 04:41:10;;;;;;;;;;;;;;;;;;8398584;27;28649;-76
2022/10/11 04:45:10;;;;;;;;;;;;;;;;;;8404594;28;27418;-76
2022/10/11 04:49:11;;;;;;;;;;;;;;;;;;8398850;28;27358;-76
2022/10/11 04:53:11;;;;;;;;;;;;;;;;;;8406779;27;28313;-75
2022/10/11 04:57:11;;;;;;;;;;;;;;;;;;8421832;27;28330;-74
2022/10/11 05:01:11;;;;;;;;;;;;;;;;;;8385104;27;28674;-74
2022/10/11 05:05:16;;;;;;;;;;;;;;;;;;8405867;27;27667;-75
2022/10/11 05:09:16;;;;;;;;;;;;;;;;;;8403060;27;28687;-76
2022/10/11 05:13:16;;;;;;;;;;;;;;;;;;8404528;27;28308;-74
2022/10/11 05:17:16;;;;;;;;;;;;;;;;;;8407029;28;27265;-76
2022/10/11 05:21:16;;;;;;;;;;;;;;;;;;8410161;27;27332;-75
2022/10/11 05:25:17;;;;;;;;;;;;;;;;;;8411968;28;27168;-77
2022/10/11 05:29:17;;;;;;;;;;;;;;;;;;8351180;28;1836652;-75
2022/10/11 05:33:17;;;;;;;;;;;;;;;;;;8417245;28;27537;-74
2022/10/11 05:37:17;;;;;;;;;;;;;;;;;;8429726;27;28287;-76
2022/10/11 05:41:17;;;;;;;;;;;;;;;;;;8415559;28;27319;-75
2022/10/11 05:45:17;;;;;;;;;;;;;;;;;;8415384;28;29292;-75
2022/10/11 05:49:17;;;;;;;;;;;;;;;;;;8414070;28;29167;-76
2022/10/11 05:53:17;;;;;;;;;;;;;;;;;;8413825;27;27625;-76
2022/10/11 05:57:18;;;;;;;;;;;;;;;;;;8410667;28;27799;-76
2022/10/11 06:01:18;;;;;;;;;;;;;;;;;;8403079;28;28573;-76
2022/10/11 06:05:18;;;;;;;;;;;;;;;;;;8417571;27;28359;-77
2022/10/11 06:09:18;;;;;;;;;;;;;;;;;;8420152;28;28047;-75
2022/10/11 06:13:18;;;;;;;;;;;;;;;;;;8413988;28;27546;-76
2022/10/11 06:17:18;;;;;;;;;;;;;;;;;;8429380;27;28817;-76
2022/10/11 06:21:19;;;;;;;;;;;;;;;;;;8418840;28;27592;-76
2022/10/11 06:25:19;;;;;;;;;;;;;;;;;;8413001;28;29593;-77
2022/10/11 06:29:19;;;;;;;;;;;;;;;;;;8415409;27;28174;-77
2022/10/11 06:33:19;;;;;;;;;;;;;;;;;;8411521;27;28668;-75
2022/10/11 06:37:19;;;;;;;;;;;;;;;;;;8416421;27;28537;-76
2022/10/11 06:41:19;;;;;;;;;;;;;;;;;;8410332;28;28252;-77
2022/10/11 06:45:20;;;;;;;;;;;;;;;;;;8414220;27;28185;-76
2022/10/11 06:49:20;;;;;;;;;;;;;;;;;;8411204;28;27348;-76
2022/10/11 06:53:20;;;;;;;;;;;;;;;;;;8398901;28;28236;-77
2022/10/11 06:57:20;;;;;;;;;;;;;;;;;;8414670;27;28201;-77
2022/10/11 07:01:22;;;;;;;;;;;;;;;;;;8412055;27;27570;-77
2022/10/11 07:05:22;;;;;;;;;;;;;;;;;;8414632;27;27378;-76
2022/10/11 07:09:22;;;;;;;;;;;;;;;;;;8429677;28;27511;-77
2022/10/11 07:13:23;;;;;;;;;;;;;;;;;;8426835;28;28765;-76
2022/10/11 07:17:23;;;;;;;;;;;;;;;;;;8458043;27;28392;-77
2022/10/11 07:21:23;;;;;;;;;;;;;;;;;;8447406;28;28326;-77
2022/10/11 07:25:23;;;;;;;;;;;;;;;;;;8445923;28;28204;-78
2022/10/11 07:29:23;;;;;;;;;;;;;;;;;;8454335;27;26985;-79
2022/10/11 07:33:24;;;;;;;;;;;;;;;;;;8450738;27;28623;-76
2022/10/11 07:37:24;;;;;;;;;;;;;;;;;;8417442;28;28183;-77
2022/10/11 07:41:24;;;;;;;;;;;;;;;;;;8416175;28;27375;-77
2022/10/11 07:45:27;;;;;;;;;;;;;;;;;;8417231;28;28292;-78
2022/10/11 07:49:27;;;;;;;;;;;;;;;;;;8420032;28;27342;-76
2022/10/11 07:53:27;;;;;;;;;;;;;;;;;;8415572;27;27467;-77
2022/10/11 07:57:28;;;;;;;;;;;;;;;;;;8410082;28;27660;-77
2022/10/11 08:01:28;;;;;;;;;;;;;;;;;;8410516;28;27534;-76
2022/10/11 08:05:28;;;;;;;;;;;;;;;;;;8408111;28;29527;-77
2022/10/11 08:09:28;;;;;;;;;;;;;;;;;;8415080;28;27346;-76
2022/10/11 08:13:28;;;;;;;;;;;;;;;;;;8414809;28;27498;-78
2022/10/11 08:17:28;;;;;;;;;;;;;;;;;;8419024;28;27552;-77
2022/10/11 08:21:29;;;;;;;;;;;;;;;;;;8415137;27;27460;-76
2022/10/11 08:25:29;;;;;;;;;;;;;;;;;;8416010;28;28639;-78
2022/10/11 08:29:29;;;;;;;;;;;;;;;;;;8412964;28;28342;-77
2022/10/11 08:33:29;;;;;;;;;;;;;;;;;;8413716;28;27380;-78
2022/10/11 08:37:30;;;;;;;;;;;;;;;;;;8413982;28;28211;-77
2022/10/11 08:41:30;;;;;;;;;;;;;;;;;;8414321;28;27298;-78
2022/10/11 08:45:30;;;;;;;;;;;;;;;;;;8412749;28;28358;-78
2022/10/11 08:49:31;;;;;;;;;;;;;;;;;;8418845;28;28646;-78
2022/10/11 08:53:31;;;;;;;;;;;;;;;;;;8428883;27;29151;-77
2022/10/11 08:57:31;;;;;;;;;;;;;;;;;;8432980;27;28301;-77
2022/10/11 09:01:31;;;;;;;;;;;;;;;;;;8412476;28;28278;-77
2022/10/11 09:05:31;;;;;;;;;;;;;;;;;;8424268;27;27496;-77
2022/10/11 09:09:32;;;;;;;;;;;;;;;;;;8414953;28;28925;-80
2022/10/11 09:13:33;;;;;;;;;;;;;;;;;;8418392;28;28396;-76
2022/10/11 09:17:33;;;;;;;;;;;;;;;;;;8434634;27;28509;-76
2022/10/11 09:21:33;;;;;;;;;;;;;;;;;;8416749;28;28502;-77
2022/10/11 09:25:34;;;;;;;;;;;;;;;;;;8400118;28;28186;-76
2022/10/11 09:29:34;;;;;;;;;;;;;;;;;;8411137;28;28176;-77
2022/10/11 09:33:34;;;;;;;;;;;;;;;;;;8413570;28;28709;-77
2022/10/11 09:37:34;;;;;;;;;;;;;;;;;;8417481;28;28507;-77
2022/10/11 09:41:34;;;;;;;;;;;;;;;;;;8419105;28;28153;-77
2022/10/11 09:45:34;;;;;;;;;;;;;;;;;;8417797;28;28617;-76
2022/10/11 09:49:34;;;;;;;;;;;;;;;;;;8416446;28;28511;-77
2022/10/11 09:53:35;;;;;;;;;;;;;;;;;;8416392;27;27336;-77
2022/10/11 09:57:35;;;;;;;;;;;;;;;;;;8417457;28;28634;-78
2022/10/11 10:01:35;;;;;;;;;;;;;;;;;;8418402;28;28523;-76
2022/10/11 10:05:38;;;;;;;;;;;;;;;;;;8414811;27;28105;-78
2022/10/11 10:09:38;;;;;;;;;;;;;;;;;;8419536;28;27453;-78
2022/10/11 10:13:38;;;;;;;;;;;;;;;;;;8416812;28;28414;-77
2022/10/11 10:17:38;;;;;;;;;;;;;;;;;;8406146;28;28893;-78
2022/10/11 10:21:39;;;;;;;;;;;;;;;;;;8435722;27;28567;-77
2022/10/11 10:25:39;;;;;;;;;;;;;;;;;;8419994;28;27547;-77
2022/10/11 10:29:39;;;;;;;;;;;;;;;;;;8412354;28;28819;-77
2022/10/11 10:33:39;;;;;;;;;;;;;;;;;;8418276;28;28105;-76
2022/10/11 10:37:42;;;;;;;;;;;;;;;;;;8421234;28;27350;-78
2022/10/11 10:41:43;;;;;;;;;;;;;;;;;;8414493;28;28561;-78
2022/10/11 10:45:43;;;;;;;;;;;;;;;;;;8434527;27;28275;-78
2022/10/11 10:49:44;;;;;;;;;;;;;;;;;;8419047;27;27428;-79
2022/10/11 10:53:44;;;;;;;;;;;;;;;;;;8412460;28;27281;-78
2022/10/11 10:57:44;;;;;;;;;;;;;;;;;;8410617;28;28133;-78
2022/10/11 11:01:44;;;;;;;;;;;;;;;;;;8416471;27;27488;-77
2022/10/11 11:05:44;;;;;;;;;;;;;;;;;;8418338;28;28656;-78
2022/10/11 11:09:44;;;;;;;;;;;;;;;;;;8420780;27;27252;-77
2022/10/11 11:13:44;;;;;;;;;;;;;;;;;;8415395;28;27858;-76
2022/10/11 11:17:45;;;;;;;;;;;;;;;;;;8414823;27;27987;-78
2022/10/11 11:21:45;;;;;;;;;;;;;;;;;;8428399;27;28257;-77
2022/10/11 11:25:45;;;;;;;;;;;;;;;;;;8400856;28;28190;-79
2022/10/11 11:29:46;;;;;;;;;;;;;;;;;;8425864;27;28657;-79
2022/10/11 11:33:46;;;;;;;;;;;;;;;;;;8416528;28;27529;-78
2022/10/11 11:37:46;;;;;;;;;;;;;;;;;;8414139;28;27250;-77
2022/10/11 11:41:47;;;;;;;;;;;;;;;;;;8416820;28;27614;-78
2022/10/11 11:45:47;;;;;;;;;;;;;;;;;;8415772;28;28478;-79
2022/10/11 11:49:47;;;;;;;;;;;;;;;;;;8415467;27;27369;-79
2022/10/11 11:53:47;;;;;;;;;;;;;;;;;;8414358;28;27263;-78
2022/10/11 11:57:47;;;;;;;;;;;;;;;;;;8411903;28;46408;-78
2022/10/11 12:01:47;;;;;;;;;;;;;;;;;;8414877;28;28346;-78
2022/10/11 12:05:48;;;;;;;;;;;;;;;;;;8412897;28;29529;-78
2022/10/11 12:09:49;;;;;;;;;;;;;;;;;;8404855;28;28757;-78
2022/10/11 12:13:49;;;;;;;;;;;;;;;;;;8411172;28;28246;-77
2022/10/11 12:17:49;;;;;;;;;;;;;;;;;;8399444;28;28173;-78
2022/10/11 12:21:49;;;;;;;;;;;;;;;;;;8413689;28;27439;-75
2022/10/11 12:25:49;;;;;;;;;;;;;;;;;;8416289;27;27471;-77
2022/10/11 12:29:50;;;;;;;;;;;;;;;;;;8419636;28;28438;-79
2022/10/11 12:33:50;;;;;;;;;;;;;;;;;;8453180;27;28552;-77
2022/10/11 12:37:50;;;;;;;;;;;;;;;;;;8439917;27;28199;-78
2022/10/11 12:41:52;;;;;;;;;;;;;;;;;;8455315;28;26963;-80
2022/10/11 12:45:52;;;;;;;;;;;;;;;;;;8447880;28;28829;-80
2022/10/11 12:49:52;;;;;;;;;;;;;;;;;;8452088;28;27064;-79
2022/10/11 12:53:52;;;;;;;;;;;;;;;;;;8465901;27;28552;-79
2022/10/11 12:57:53;;;;;;;;;;;;;;;;;;8425781;28;28383;-78
2022/10/11 13:01:53;;;;;;;;;;;;;;;;;;8391101;28;28249;-76
2022/10/11 13:05:55;;;;;;;;;;;;;;;;;;8414729;28;27911;-75
2022/10/11 13:09:55;;;;;;;;;;;;;;;;;;8401838;28;28727;-78
2022/10/11 13:13:55;;;;;;;;;;;;;;;;;;8411283;27;29295;-78
2022/10/11 13:17:55;;;;;;;;;;;;;;;;;;8412354;28;28305;-78
2022/10/11 13:21:55;;;;;;;;;;;;;;;;;;8426068;27;28433;-78
2022/10/11 13:25:55;;;;;;;;;;;;;;;;;;8429264;27;28175;-77
2022/10/11 13:29:58;;;;;;;;;;;;;;;;;;8427590;27;28600;-77
2022/10/11 13:33:58;;;;;;;;;;;;;;;;;;8410611;28;27522;-79
2022/10/11 13:37:58;;;;;;;;;;;;;;;;;;8402543;28;28769;-79
2022/10/11 13:41:59;;;;;;;;;;;;;;;;;;8406673;28;28502;-78
2022/10/11 13:45:59;;;;;;;;;;;;;;;;;;8419788;28;27952;-78
2022/10/11 13:49:59;;;;;;;;;;;;;;;;;;8420419;27;27296;-77
2022/10/11 13:53:59;;;;;;;;;;;;;;;;;;8406093;27;28266;-76
2022/10/11 13:57:59;;;;;;;;;;;;;;;;;;8402526;28;28328;-77
2022/10/11 14:02:00;;;;;;;;;;;;;;;;;;8411604;28;28022;-77
2022/10/11 14:06:00;;;;;;;;;;;;;;;;;;8413174;28;28272;-77
2022/10/11 14:10:00;;;;;;;;;;;;;;;;;;8410349;28;29085;-76
2022/10/11 14:14:00;;;;;;;;;;;;;;;;;;8403214;28;28556;-78
2022/10/11 14:18:00;;;;;;;;;;;;;;;;;;8415270;28;28145;-77
2022/10/11 14:22:00;;;;;;;;;;;;;;;;;;8410822;28;28453;-76
2022/10/11 14:26:00;;;;;;;;;;;;;;;;;;8404689;28;28461;-76
2022/10/11 14:30:01;;;;;;;;;;;;;;;;;;8403778;27;28300;-77
2022/10/11 14:34:01;;;;;;;;;;;;;;;;;;8416495;28;28500;-77
2022/10/11 14:38:01;;;;;;;;;;;;;;;;;;8418463;28;27712;-77
2022/10/11 14:42:01;;;;;;;;;;;;;;;;;;8405197;28;28155;-77
2022/10/11 14:46:01;;;;;;;;;;;;;;;;;;8405336;28;27283;-77
2022/10/11 14:50:01;;;;;;;;;;;;;;;;;;8405259;28;27307;-77
2022/10/11 14:54:02;;;;;;;;;;;;;;;;;;8397825;27;28210;-77
2022/10/11 14:58:02;;;;;;;;;;;;;;;;;;8400583;27;28301;-79
2022/10/11 15:02:02;;;;;;;;;;;;;;;;;;8415041;27;29075;-78
2022/10/11 15:06:02;;;;;;;;;;;;;;;;;;8406459;27;28551;-78
2022/10/11 15:10:02;;;;;;;;;;;;;;;;;;8410273;28;29142;-77
2022/10/11 15:14:02;;;;;;;;;;;;;;;;;;8388807;28;28183;-77
2022/10/11 15:18:03;;;;;;;;;;;;;;;;;;8406081;28;28201;-77
2022/10/11 15:22:04;;;;;;;;;;;;;;;;;;8428328;27;28326;-76
2022/10/11 15:26:04;;;;;;;;;;;;;;;;;;8400618;28;28438;-78
2022/10/11 15:30:05;;;;;;;;;;;;;;;;;;8402301;28;28404;-77
2022/10/11 15:34:05;;;;;;;;;;;;;;;;;;8413015;27;28470;-76
2022/10/11 15:38:05;;;;;;;;;;;;;;;;;;8411124;27;27680;-77
2022/10/11 15:42:05;;;;;;;;;;;;;;;;;;8413311;28;27430;-77
2022/10/11 15:46:05;;;;;;;;;;;;;;;;;;8408153;27;29117;-77
2022/10/11 15:50:06;;;;;;;;;;;;;;;;;;8399173;27;28284;-78
2022/10/11 15:54:06;;;;;;;;;;;;;;;;;;8394937;28;27695;-76
2022/10/11 15:58:06;;;;;;;;;;;;;;;;;;8427820;27;28543;-77
2022/10/11 16:02:06;;;;;;;;;;;;;;;;;;8405394;28;27324;-77
2022/10/11 16:06:07;;;;;;;;;;;;;;;;;;8404341;27;28193;-78
2022/10/11 16:10:07;;;;;;;;;;;;;;;;;;8399412;27;28361;-76
2022/10/11 16:14:07;;;;;;;;;;;;;;;;;;8411964;27;27417;-79
2022/10/11 16:18:07;;;;;;;;;;;;;;;;;;8408565;27;28733;-78
2022/10/11 16:22:07;;;;;;;;;;;;;;;;;;8412524;28;27274;-77
2022/10/11 16:26:07;;;;;;;;;;;;;;;;;;8409738;27;28190;-77
2022/10/11 16:30:10;;;;;;;;;;;;;;;;;;8425500;27;28671;-77
2022/10/11 16:34:10;;;;;;;;;;;;;;;;;;8413205;27;28284;-77
2022/10/11 16:38:10;;;;;;;;;;;;;;;;;;8413848;28;27429;-76
2022/10/11 16:42:11;;;;;;;;;;;;;;;;;;8404578;27;29628;-78
2022/10/11 16:46:11;;;;;;;;;;;;;;;;;;8410886;27;27424;-78
2022/10/11 16:50:11;;;;;;;;;;;;;;;;;;8407618;27;28471;-77
2022/10/11 16:54:11;;;;;;;;;;;;;;;;;;8410229;27;28080;-77
2022/10/11 16:58:11;;;;;;;;;;;;;;;;;;8406231;27;29236;-76
2022/10/11 17:02:11;;;;;;;;;;;;;;;;;;8401510;28;27385;-76
2022/10/11 17:06:12;;;;;;;;;;;;;;;;;;8406060;27;28306;-75
2022/10/11 17:10:12;;;;;;;;;;;;;;;;;;8395245;27;28795;-77
2022/10/11 17:14:12;;;;;;;;;;;;;;;;;;8410867;27;28177;-75
2022/10/11 17:18:12;;;;;;;;;;;;;;;;;;8428088;27;28200;-76
2022/10/11 17:22:12;;;;;;;;;;;;;;;;;;8393972;28;29107;-75
2022/10/11 17:26:13;;;;;;;;;;;;;;;;;;8428520;27;28535;-77
2022/10/11 17:30:13;;;;;;;;;;;;;;;;;;8411261;28;27180;-78
2022/10/11 17:34:13;;;;;;;;;;;;;;;;;;8419103;28;27624;-77
2022/10/11 17:38:14;;;;;;;;;;;;;;;;;;8422037;27;27448;-78
2022/10/11 17:42:14;;;;;;;;;;;;;;;;;;8420028;27;27207;-79
2022/10/11 17:46:14;;;;;;;;;;;;;;;;;;8415805;28;28449;-77
2022/10/11 17:50:14;;;;;;;;;;;;;;;;;;8422235;28;27348;-78
2022/10/11 17:54:15;;;;;;;;;;;;;;;;;;8426932;28;28174;-79
2022/10/11 17:58:15;;;;;;;;;;;;;;;;;;8439675;28;28365;-78
2022/10/11 18:02:15;;;;;;;;;;;;;;;;;;8444290;28;28576;-78
2022/10/11 18:06:16;;;;;;;;;;;;;;;;;;8470665;27;28155;-78
2022/10/11 18:10:16;;;;;;;;;;;;;;;;;;8455472;27;28242;-79
2022/10/11 18:14:16;;;;;;;;;;;;;;;;;;8456556;28;27017;-79
2022/10/11 18:18:17;;;;;;;;;;;;;;;;;;8458858;27;27187;-78
2022/10/11 18:22:17;;;;;;;;;;;;;;;;;;8448473;27;27297;-75
2022/10/11 18:26:17;;;;;;;;;;;;;;;;;;8414466;27;28349;-78
2022/10/11 18:30:17;;;;;;;;;;;;;;;;;;8421782;28;27934;-78
2022/10/11 18:34:17;;;;;;;;;;;;;;;;;;8414524;27;28199;-77
2022/10/11 18:38:17;;;;;;;;;;;;;;;;;;8441820;27;28479;-77
2022/10/11 18:42:19;;;;;;;;;;;;;;;;;;8418858;28;27930;-77
2022/10/11 18:46:19;;;;;;;;;;;;;;;;;;8414999;27;27983;-78
2022/10/11 18:50:19;;;;;;;;;;;;;;;;;;8412627;27;27754;-75
2022/10/11 18:54:19;;;;;;;;;;;;;;;;;;8428042;27;28571;-77
2022/10/11 18:58:19;;;;;;;;;;;;;;;;;;8419339;27;27510;-76
2022/10/11 19:02:19;;;;;;;;;;;;;;;;;;8410000;27;28189;-76
2022/10/11 19:06:20;;;;;;;;;;;;;;;;;;8417483;27;27439;-76
2022/10/11 19:10:20;;;;;;;;;;;;;;;;;;8413518;28;27362;-76
2022/10/11 19:14:20;;;;;;;;;;;;;;;;;;8412440;27;28509;-76
2022/10/11 19:18:20;;;;;;;;;;;;;;;;;;8408775;27;28147;-76
2022/10/11 19:22:20;;;;;;;;;;;;;;;;;;8400690;28;28604;-76
2022/10/11 19:26:21;;;;;;;;;;;;;;;;;;8408012;28;27356;-77
2022/10/11 19:30:23;;;;;;;;;;;;;;;;;;8422035;27;28474;-77
2022/10/11 19:34:25;;;;;;;;;;;;;;;;;;8424722;27;28604;-77
2022/10/11 19:38:25;;;;;;;;;;;;;;;;;;8393412;27;28441;-77
2022/10/11 19:42:26;;;;;;;;;;;;;;;;;;8425653;27;28288;-76
2022/10/11 19:46:26;;;;;;;;;;;;;;;;;;8408017;28;27927;-75
2022/10/11 19:50:26;;;;;;;;;;;;;;;;;;8410890;28;27144;-77
2022/10/11 19:54:26;;;;;;;;;;;;;;;;;;8410996;28;27293;-76
2022/10/11 19:58:26;;;;;;;;;;;;;;;;;;8411650;28;27577;-77
2022/10/11 20:02:26;;;;;;;;;;;;;;;;;;8404315;28;28551;-76
2022/10/11 20:06:27;;;;;;;;;;;;;;;;;;8411540;28;28734;-78
2022/10/11 20:10:27;;;;;;;;;;;;;;;;;;8404946;27;29201;-77
2022/10/11 20:14:27;;;;;;;;;;;;;;;;;;8422291;27;28629;-77
2022/10/11 20:18:27;;;;;;;;;;;;;;;;;;8406081;27;28920;-76
2022/10/11 20:22:27;;;;;;;;;;;;;;;;;;8405710;28;29013;-76
2022/10/11 20:26:27;;;;;;;;;;;;;;;;;;8402275;28;28785;-78
2022/10/11 20:30:28;;;;;;;;;;;;;;;;;;8400659;27;29816;-75
2022/10/11 20:34:28;;;;;;;;;;;;;;;;;;8408636;28;27441;-77
2022/10/11 20:38:28;;;;;;;;;;;;;;;;;;8409243;27;27800;-77
2022/10/11 20:42:28;;;;;;;;;;;;;;;;;;8411252;28;28606;-75
2022/10/11 20:46:28;;;;;;;;;;;;;;;;;;8410122;28;27332;-75
2022/10/11 20:50:28;;;;;;;;;;;;;;;;;;8411647;28;28599;-78
2022/10/11 20:54:29;;;;;;;;;;;;;;;;;;8415759;27;28194;-76
2022/10/11 20:58:29;;;;;;;;;;;;;;;;;;8413960;28;29501;-76
2022/10/11 21:02:29;;;;;;;;;;;;;;;;;;8414151;27;27600;-77
2022/10/11 21:06:29;;;;;;;;;;;;;;;;;;8409061;27;28328;-77
2022/10/11 21:10:29;;;;;;;;;;;;;;;;;;8408396;28;28298;-76
2022/10/11 21:14:30;;;;;;;;;;;;;;;;;;8411854;28;27998;-76
2022/10/11 21:18:30;;;;;;;;;;;;;;;;;;8412290;28;28410;-76
2022/10/11 21:22:30;;;;;;;;;;;;;;;;;;8414701;27;27482;-75
2022/10/11 21:26:30;;;;;;;;;;;;;;;;;;8410441;28;28330;-76
2022/10/11 21:30:30;;;;;;;;;;;;;;;;;;8409520;28;27480;-77
2022/10/11 21:34:31;;;;;;;;;;;;;;;;;;8408292;28;28598;-77
2022/10/11 21:38:31;;;;;;;;;;;;;;;;;;8410474;28;28654;-77
2022/10/11 21:42:31;;;;;;;;;;;;;;;;;;8429565;27;28182;-78
2022/10/11 21:46:31;;;;;;;;;;;;;;;;;;8409888;27;28675;-77
2022/10/11 21:50:31;;;;;;;;;;;;;;;;;;8427410;27;28691;-76
2022/10/11 21:54:31;;;;;;;;;;;;;;;;;;8412432;28;28629;-77
2022/10/11 21:58:32;;;;;;;;;;;;;;;;;;8429041;27;29400;-78
2022/10/11 22:02:32;;;;;;;;;;;;;;;;;;8410831;27;28612;-76
2022/10/11 22:06:32;;;;;;;;;;;;;;;;;;8399676;28;28154;-78
2022/10/11 22:10:33;;;;;;;;;;;;;;;;;;8413032;28;27178;-76
2022/10/11 22:14:34;;;;;;;;;;;;;;;;;;8412117;28;27587;-76
2022/10/11 22:18:34;;;;;;;;;;;;;;;;;;8401300;27;28334;-77
2022/10/11 22:22:34;;;;;;;;;;;;;;;;;;8413907;28;27146;-77
2022/10/11 22:26:34;;;;;;;;;;;;;;;;;;8418372;28;27314;-76
2022/10/11 22:30:34;;;;;;;;;;;;;;;;;;8417535;27;27949;-77
2022/10/11 22:34:34;;;;;;;;;;;;;;;;;;8413363;28;28251;-77
2022/10/11 22:38:35;;;;;;;;;;;;;;;;;;8402365;28;28150;-77
2022/10/11 22:42:35;;;;;;;;;;;;;;;;;;8418838;28;28613;-78
2022/10/11 22:46:35;;;;;;;;;;;;;;;;;;8427212;27;27236;-77
2022/10/11 22:50:35;;;;;;;;;;;;;;;;;;8425721;27;28859;-76
2022/10/11 22:54:35;;;;;;;;;;;;;;;;;;8409445;27;28149;-76
2022/10/11 22:58:36;;;;;;;;;;;;;;;;;;8413753;28;27494;-76
2022/10/11 23:02:36;;;;;;;;;;;;;;;;;;8414712;28;27378;-76
2022/10/11 23:06:36;;;;;;;;;;;;;;;;;;8401227;28;28222;-75
2022/10/11 23:10:36;;;;;;;;;;;;;;;;;;8416121;28;27646;-77
2022/10/11 23:14:36;;;;;;;;;;;;;;;;;;8411717;27;28275;-77
2022/10/11 23:18:36;;;;;;;;;;;;;;;;;;8410507;28;28261;-75
2022/10/11 23:22:36;;;;;;;;;;;;;;;;;;8413148;27;28206;-75
2022/10/11 23:26:37;;;;;;;;;;;;;;;;;;8440184;28;27432;-78
2022/10/11 23:30:37;;;;;;;;;;;;;;;;;;8441646;28;28153;-78
2022/10/11 23:34:37;;;;;;;;;;;;;;;;;;8452907;27;28147;-78
2022/10/11 23:38:37;;;;;;;;;;;;;;;;;;8460226;27;27122;-78
2022/10/11 23:42:37;;;;;;;;;;;;;;;;;;8460782;27;28163;-78
2022/10/11 23:46:37;;;;;;;;;;;;;;;;;;8475871;27;28763;-78
2022/10/11 23:50:37;;;;;;;;;;;;;;;;;;8457900;27;28507;-79
2022/10/11 23:54:38;;;;;;;;;;;;;;;;;;8430044;28;27640;-77
2022/10/11 23:58:38;;;;;;;;;;;;;;;;;;8415629;28;27108;-77
